Addison, Maine
Current Conditions -  °F | °C
As of 1:35 PM on Monday 20 Oct 2014 (Local Time) from KBHB Reporting Station
Clear Clear  
Wind Chill: 44°   Ceiling: Unl
Heat Index: 48°   Visibility: 10mi
Dew Point: 27°   Wind: 10mph
Humidity: 43%   Direction: 240°WSW
Pressure: 29.91"   Gusts: NA
Location:  44.62°N, 67.74°W
Report Text: KBHB 201735Z AUTO 24009KT 10SM CLR 09/M03 A2991 RMK AO1
Loading
Personal Weather Stations






























Interactive Weather Map
Tropical Storm Tracking
New forecast layout! Learn more

10-Day Weather Forecast

Advertisements
Track Severe Weather on mobile